sensor_id;sensor_type;location;lat;lon;timestamp;pressure;altitude;pressure_sealevel;temperature;humidity
66385;BME280;53426;55.872;37.462;2022-12-18T00:01:29;98762.56;;;-4.33;79.92
66385;BME280;53426;55.872;37.462;2022-12-18T00:03:57;98758.81;;;-4.24;79.80
66385;BME280;53426;55.872;37.462;2022-12-18T00:06:25;98747.63;;;-4.25;79.44
66385;BME280;53426;55.872;37.462;2022-12-18T00:08:54;98733.69;;;-4.20;79.47
66385;BME280;53426;55.872;37.462;2022-12-18T00:11:24;98737.44;;;-4.29;79.57
66385;BME280;53426;55.872;37.462;2022-12-18T00:13:52;98720.25;;;-4.30;79.34
66385;BME280;53426;55.872;37.462;2022-12-18T00:16:23;98725.66;;;-4.36;79.41
66385;BME280;53426;55.872;37.462;2022-12-18T00:18:55;98732.50;;;-4.35;79.59
66385;BME280;53426;55.872;37.462;2022-12-18T00:39:50;98696.56;;;-4.41;79.20
66385;BME280;53426;55.872;37.462;2022-12-18T00:42:16;98696.63;;;-4.43;79.51
66385;BME280;53426;55.872;37.462;2022-12-18T00:45:00;98695.34;;;-4.31;79.39
66385;BME280;53426;55.872;37.462;2022-12-18T00:47:26;98690.16;;;-4.31;79.23
66385;BME280;53426;55.872;37.462;2022-12-18T00:49:52;98689.47;;;-4.36;79.06
66385;BME280;53426;55.872;37.462;2022-12-18T00:52:17;98677.72;;;-4.43;79.00
66385;BME280;53426;55.872;37.462;2022-12-18T00:54:43;98684.22;;;-4.33;79.25
66385;BME280;53426;55.872;37.462;2022-12-18T00:57:09;98681.84;;;-4.39;79.09
66385;BME280;53426;55.872;37.462;2022-12-18T00:59:34;98671.66;;;-4.42;78.83
66385;BME280;53426;55.872;37.462;2022-12-18T01:02:01;98664.84;;;-4.45;79.27
66385;BME280;53426;55.872;37.462;2022-12-18T01:04:26;98655.00;;;-4.35;78.91
66385;BME280;53426;55.872;37.462;2022-12-18T01:06:52;98655.56;;;-4.27;78.91
66385;BME280;53426;55.872;37.462;2022-12-18T01:09:18;98664.59;;;-4.15;78.59
66385;BME280;53426;55.872;37.462;2022-12-18T01:11:44;98670.03;;;-4.23;78.35
66385;BME280;53426;55.872;37.462;2022-12-18T01:14:13;98658.09;;;-4.26;78.34
66385;BME280;53426;55.872;37.462;2022-12-18T01:16:39;98672.91;;;-4.31;78.48
66385;BME280;53426;55.872;37.462;2022-12-18T01:19:05;98660.28;;;-4.38;78.43
66385;BME280;53426;55.872;37.462;2022-12-18T01:21:30;98621.09;;;-4.49;78.37
66385;BME280;53426;55.872;37.462;2022-12-18T01:24:39;98631.38;;;-4.48;78.20
66385;BME280;53426;55.872;37.462;2022-12-18T01:27:07;98635.41;;;-4.41;78.36
66385;BME280;53426;55.872;37.462;2022-12-18T01:29:32;98614.72;;;-4.41;78.17
66385;BME280;53426;55.872;37.462;2022-12-18T01:31:58;98651.94;;;-4.23;78.27
66385;BME280;53426;55.872;37.462;2022-12-18T01:34:24;98641.50;;;-4.20;78.28
66385;BME280;53426;55.872;37.462;2022-12-18T01:36:51;98634.50;;;-4.18;77.91
66385;BME280;53426;55.872;37.462;2022-12-18T01:39:18;98643.72;;;-4.11;77.99
66385;BME280;53426;55.872;37.462;2022-12-18T01:41:44;98655.38;;;-4.01;78.13
66385;BME280;53426;55.872;37.462;2022-12-18T01:44:59;98634.88;;;-4.05;77.84
66385;BME280;53426;55.872;37.462;2022-12-18T01:47:35;98626.66;;;-4.15;77.78
66385;BME280;53426;55.872;37.462;2022-12-18T01:52:37;98631.31;;;-4.03;77.27
66385;BME280;53426;55.872;37.462;2022-12-18T01:55:06;98627.78;;;-4.00;77.26
66385;BME280;53426;55.872;37.462;2022-12-18T01:57:33;98633.75;;;-3.98;76.80
66385;BME280;53426;55.872;37.462;2022-12-18T02:00:02;98637.69;;;-3.90;76.50
66385;BME280;53426;55.872;37.462;2022-12-18T02:02:44;98628.56;;;-3.98;76.42
66385;BME280;53426;55.872;37.462;2022-12-18T02:05:15;98629.94;;;-3.90;76.55
66385;BME280;53426;55.872;37.462;2022-12-18T02:07:55;98637.81;;;-3.93;76.16
66385;BME280;53426;55.872;37.462;2022-12-18T02:14:49;98637.22;;;-3.99;76.36
66385;BME280;53426;55.872;37.462;2022-12-18T02:17:36;98633.47;;;-3.92;76.52
66385;BME280;53426;55.872;37.462;2022-12-18T02:26:12;98638.41;;;-3.86;76.30
66385;BME280;53426;55.872;37.462;2022-12-18T02:29:05;98644.91;;;-3.98;76.27
66385;BME280;53426;55.872;37.462;2022-12-18T02:31:35;98649.97;;;-3.95;76.33
66385;BME280;53426;55.872;37.462;2022-12-18T02:34:05;98640.34;;;-3.91;76.48
66385;BME280;53426;55.872;37.462;2022-12-18T02:36:39;98645.50;;;-3.91;76.17
66385;BME280;53426;55.872;37.462;2022-12-18T02:39:10;98640.66;;;-3.99;76.16
66385;BME280;53426;55.872;37.462;2022-12-18T02:41:42;98632.75;;;-3.96;76.07
66385;BME280;53426;55.872;37.462;2022-12-18T02:44:11;98634.84;;;-4.04;76.01
66385;BME280;53426;55.872;37.462;2022-12-18T02:47:05;98642.97;;;-3.93;76.18
66385;BME280;53426;55.872;37.462;2022-12-18T02:52:19;98624.41;;;-4.02;75.75
66385;BME280;53426;55.872;37.462;2022-12-18T03:01:09;98628.22;;;-4.11;75.81
66385;BME280;53426;55.872;37.462;2022-12-18T03:03:41;98626.34;;;-4.07;75.50
66385;BME280;53426;55.872;37.462;2022-12-18T03:08:52;98635.97;;;-4.11;75.36
66385;BME280;53426;55.872;37.462;2022-12-18T03:11:20;98641.13;;;-4.11;75.44
66385;BME280;53426;55.872;37.462;2022-12-18T03:14:07;98625.31;;;-4.03;75.76
66385;BME280;53426;55.872;37.462;2022-12-18T03:16:34;98604.78;;;-4.28;75.38
66385;BME280;53426;55.872;37.462;2022-12-18T03:19:11;98620.50;;;-4.12;75.52
66385;BME280;53426;55.872;37.462;2022-12-18T03:21:45;98612.94;;;-4.17;76.05
66385;BME280;53426;55.872;37.462;2022-12-18T03:24:15;98616.59;;;-4.23;75.54
66385;BME280;53426;55.872;37.462;2022-12-18T03:26:45;98628.44;;;-4.17;75.75
66385;BME280;53426;55.872;37.462;2022-12-18T03:29:35;98613.41;;;-4.07;75.78
66385;BME280;53426;55.872;37.462;2022-12-18T03:32:10;98622.00;;;-4.07;75.21
66385;BME280;53426;55.872;37.462;2022-12-18T03:34:40;98626.75;;;-4.18;74.79
66385;BME280;53426;55.872;37.462;2022-12-18T03:37:10;98637.88;;;-4.16;75.31
66385;BME280;53426;55.872;37.462;2022-12-18T03:39:37;98619.31;;;-4.26;75.18
66385;BME280;53426;55.872;37.462;2022-12-18T03:42:28;98628.91;;;-4.29;75.34
66385;BME280;53426;55.872;37.462;2022-12-18T03:45:08;98654.00;;;-4.31;75.73
66385;BME280;53426;55.872;37.462;2022-12-18T03:48:06;98647.91;;;-4.30;75.66
66385;BME280;53426;55.872;37.462;2022-12-18T03:54:05;98639.31;;;-4.31;75.95
66385;BME280;53426;55.872;37.462;2022-12-18T03:59:36;98591.97;;;-4.53;75.80
66385;BME280;53426;55.872;37.462;2022-12-18T04:02:04;98625.31;;;-4.25;75.77
66385;BME280;53426;55.872;37.462;2022-12-18T04:04:35;98612.34;;;-4.24;75.88
66385;BME280;53426;55.872;37.462;2022-12-18T04:07:07;98628.50;;;-4.40;75.79
66385;BME280;53426;55.872;37.462;2022-12-18T04:09:39;98624.47;;;-4.47;76.31
66385;BME280;53426;55.872;37.462;2022-12-18T04:12:26;98583.72;;;-4.63;76.66
66385;BME280;53426;55.872;37.462;2022-12-18T04:14:52;98590.63;;;-4.63;76.28
66385;BME280;53426;55.872;37.462;2022-12-18T04:22:20;98649.22;;;-4.42;75.86
66385;BME280;53426;55.872;37.462;2022-12-18T04:24:51;98639.53;;;-4.58;75.90
66385;BME280;53426;55.872;37.462;2022-12-18T04:27:28;98658.97;;;-4.48;75.73
66385;BME280;53426;55.872;37.462;2022-12-18T04:29:58;98655.53;;;-4.49;75.77
66385;BME280;53426;55.872;37.462;2022-12-18T04:32:24;98642.72;;;-4.52;75.62
66385;BME280;53426;55.872;37.462;2022-12-18T04:34:50;98669.88;;;-4.42;75.59
66385;BME280;53426;55.872;37.462;2022-12-18T04:37:16;98678.78;;;-4.49;75.72
66385;BME280;53426;55.872;37.462;2022-12-18T04:39:43;98708.59;;;-4.40;75.69
66385;BME280;53426;55.872;37.462;2022-12-18T04:42:18;98709.22;;;-4.34;75.44
66385;BME280;53426;55.872;37.462;2022-12-18T04:44:44;98715.84;;;-4.27;75.23
66385;BME280;53426;55.872;37.462;2022-12-18T04:47:11;98715.66;;;-4.22;75.36
66385;BME280;53426;55.872;37.462;2022-12-18T04:49:37;98713.16;;;-4.25;75.08
66385;BME280;53426;55.872;37.462;2022-12-18T04:52:03;98700.38;;;-4.28;74.94
66385;BME280;53426;55.872;37.462;2022-12-18T04:54:29;98683.78;;;-4.44;75.23
66385;BME280;53426;55.872;37.462;2022-12-18T04:56:54;98700.97;;;-4.43;75.18
66385;BME280;53426;55.872;37.462;2022-12-18T04:59:20;98713.75;;;-4.40;75.63
66385;BME280;53426;55.872;37.462;2022-12-18T05:01:46;98709.59;;;-4.44;75.43
66385;BME280;53426;55.872;37.462;2022-12-18T05:04:13;98680.56;;;-4.51;75.20
66385;BME280;53426;55.872;37.462;2022-12-18T05:10:33;98665.69;;;-4.68;75.00
66385;BME280;53426;55.872;37.462;2022-12-18T05:13:24;98688.72;;;-4.61;74.98
66385;BME280;53426;55.872;37.462;2022-12-18T05:15:52;98662.59;;;-4.77;75.11
66385;BME280;53426;55.872;37.462;2022-12-18T05:31:15;98732.75;;;-4.65;74.64
66385;BME280;53426;55.872;37.462;2022-12-18T05:33:41;98731.94;;;-4.67;74.82
66385;BME280;53426;55.872;37.462;2022-12-18T05:36:09;98706.09;;;-4.90;74.67
66385;BME280;53426;55.872;37.462;2022-12-18T05:50:16;98729.69;;;-4.76;74.17
66385;BME280;53426;55.872;37.462;2022-12-18T05:55:48;98733.59;;;-4.89;73.66
66385;BME280;53426;55.872;37.462;2022-12-18T06:01:12;98752.19;;;-4.79;74.19
66385;BME280;53426;55.872;37.462;2022-12-18T06:09:38;98760.09;;;-4.84;74.35
66385;BME280;53426;55.872;37.462;2022-12-18T06:12:06;98786.28;;;-4.70;74.41
66385;BME280;53426;55.872;37.462;2022-12-18T06:14:38;98797.78;;;-4.78;74.50
66385;BME280;53426;55.872;37.462;2022-12-18T06:17:09;98806.28;;;-4.75;75.16
66385;BME280;53426;55.872;37.462;2022-12-18T06:19:40;98823.50;;;-4.75;75.08
66385;BME280;53426;55.872;37.462;2022-12-18T06:22:06;98822.53;;;-4.73;75.60
66385;BME280;53426;55.872;37.462;2022-12-18T06:24:32;98814.91;;;-4.76;75.41
66385;BME280;53426;55.872;37.462;2022-12-18T06:26:58;98819.88;;;-4.70;75.33
66385;BME280;53426;55.872;37.462;2022-12-18T06:29:24;98817.69;;;-4.82;75.41
66385;BME280;53426;55.872;37.462;2022-12-18T06:31:50;98832.19;;;-4.78;75.33
66385;BME280;53426;55.872;37.462;2022-12-18T06:34:16;98824.59;;;-4.82;75.31
66385;BME280;53426;55.872;37.462;2022-12-18T06:36:41;98822.00;;;-4.82;75.31
66385;BME280;53426;55.872;37.462;2022-12-18T06:39:07;98817.34;;;-4.71;75.03
66385;BME280;53426;55.872;37.462;2022-12-18T06:41:36;98825.88;;;-4.69;74.72
66385;BME280;53426;55.872;37.462;2022-12-18T06:44:04;98842.09;;;-4.66;74.75
66385;BME280;53426;55.872;37.462;2022-12-18T06:46:36;98851.38;;;-4.60;74.47
66385;BME280;53426;55.872;37.462;2022-12-18T06:49:03;98859.09;;;-4.58;74.16
66385;BME280;53426;55.872;37.462;2022-12-18T06:51:47;98869.34;;;-4.57;74.24
66385;BME280;53426;55.872;37.462;2022-12-18T06:55:17;98856.56;;;-4.60;73.97
66385;BME280;53426;55.872;37.462;2022-12-18T06:57:43;98895.38;;;-4.37;73.54
66385;BME280;53426;55.872;37.462;2022-12-18T07:00:09;98888.19;;;-4.29;72.73
66385;BME280;53426;55.872;37.462;2022-12-18T07:02:38;98860.25;;;-4.42;72.96
66385;BME280;53426;55.872;37.462;2022-12-18T07:05:50;98858.47;;;-4.42;72.53
66385;BME280;53426;55.872;37.462;2022-12-18T07:08:16;98888.09;;;-4.26;72.64
66385;BME280;53426;55.872;37.462;2022-12-18T07:10:43;98879.50;;;-4.26;72.49
66385;BME280;53426;55.872;37.462;2022-12-18T07:13:09;98893.94;;;-4.20;72.40
66385;BME280;53426;55.872;37.462;2022-12-18T07:15:35;98908.66;;;-4.23;72.19
66385;BME280;53426;55.872;37.462;2022-12-18T07:18:01;98895.91;;;-4.27;72.02
66385;BME280;53426;55.872;37.462;2022-12-18T07:20:26;98885.66;;;-4.30;72.08
66385;BME280;53426;55.872;37.462;2022-12-18T07:22:57;98897.91;;;-4.10;71.97
66385;BME280;53426;55.872;37.462;2022-12-18T07:25:23;98890.19;;;-4.12;72.01
66385;BME280;53426;55.872;37.462;2022-12-18T07:27:49;98904.50;;;-4.03;71.95
66385;BME280;53426;55.872;37.462;2022-12-18T07:36:13;98938.50;;;-3.89;71.34
66385;BME280;53426;55.872;37.462;2022-12-18T07:38:39;98935.31;;;-3.97;71.35
66385;BME280;53426;55.872;37.462;2022-12-18T07:41:12;98956.56;;;-3.88;71.26
66385;BME280;53426;55.872;37.462;2022-12-18T07:43:39;98936.00;;;-3.92;71.26
66385;BME280;53426;55.872;37.462;2022-12-18T07:46:05;98953.44;;;-3.72;70.81
66385;BME280;53426;55.872;37.462;2022-12-18T07:48:31;98954.94;;;-3.67;70.46
66385;BME280;53426;55.872;37.462;2022-12-18T07:50:59;98943.34;;;-3.57;70.40
66385;BME280;53426;55.872;37.462;2022-12-18T07:53:33;98949.94;;;-3.48;70.15
66385;BME280;53426;55.872;37.462;2022-12-18T07:56:02;98944.66;;;-3.68;70.08
66385;BME280;53426;55.872;37.462;2022-12-18T07:58:49;98959.38;;;-3.47;70.51
66385;BME280;53426;55.872;37.462;2022-12-18T08:01:15;98942.34;;;-3.53;70.28
66385;BME280;53426;55.872;37.462;2022-12-18T08:03:41;98928.50;;;-3.52;70.10
66385;BME280;53426;55.872;37.462;2022-12-18T08:06:09;98923.81;;;-3.65;70.70
66385;BME280;53426;55.872;37.462;2022-12-18T08:08:36;98934.25;;;-3.67;70.69
66385;BME280;53426;55.872;37.462;2022-12-18T08:11:02;98960.00;;;-3.64;70.99
66385;BME280;53426;55.872;37.462;2022-12-18T08:13:28;98961.22;;;-3.74;71.16
66385;BME280;53426;55.872;37.462;2022-12-18T08:16:01;98979.69;;;-3.60;70.72
66385;BME280;53426;55.872;37.462;2022-12-18T08:18:27;98986.09;;;-3.47;70.37
66385;BME280;53426;55.872;37.462;2022-12-18T08:23:42;98991.28;;;-3.47;70.77
66385;BME280;53426;55.872;37.462;2022-12-18T08:26:08;98999.06;;;-3.47;70.21
66385;BME280;53426;55.872;37.462;2022-12-18T08:28:34;99014.91;;;-3.56;70.81
66385;BME280;53426;55.872;37.462;2022-12-18T08:33:53;99009.63;;;-3.53;70.99
66385;BME280;53426;55.872;37.462;2022-12-18T08:40:21;99042.81;;;-3.41;71.24
66385;BME280;53426;55.872;37.462;2022-12-18T08:42:47;99030.53;;;-3.34;70.84
66385;BME280;53426;55.872;37.462;2022-12-18T08:49:19;99040.56;;;-3.26;71.00
66385;BME280;53426;55.872;37.462;2022-12-18T08:51:46;99034.41;;;-3.22;71.47
66385;BME280;53426;55.872;37.462;2022-12-18T08:54:12;99013.63;;;-3.21;71.10
66385;BME280;53426;55.872;37.462;2022-12-18T08:56:39;99016.03;;;-3.16;70.83
66385;BME280;53426;55.872;37.462;2022-12-18T08:59:05;99028.94;;;-3.15;70.79
66385;BME280;53426;55.872;37.462;2022-12-18T09:01:30;99018.69;;;-3.18;70.66
66385;BME280;53426;55.872;37.462;2022-12-18T09:06:46;99037.94;;;-3.25;71.21
66385;BME280;53426;55.872;37.462;2022-12-18T09:09:12;99028.91;;;-3.38;71.63
66385;BME280;53426;55.872;37.462;2022-12-18T09:11:40;99046.59;;;-3.26;71.53
66385;BME280;53426;55.872;37.462;2022-12-18T09:14:06;99041.94;;;-3.16;71.21
66385;BME280;53426;55.872;37.462;2022-12-18T09:16:32;99044.16;;;-3.06;71.05
66385;BME280;53426;55.872;37.462;2022-12-18T09:19:03;99038.03;;;-3.05;70.96
66385;BME280;53426;55.872;37.462;2022-12-18T09:21:32;99049.47;;;-3.10;70.87
66385;BME280;53426;55.872;37.462;2022-12-18T09:23:58;99054.28;;;-3.23;70.97
66385;BME280;53426;55.872;37.462;2022-12-18T09:26:25;99062.63;;;-3.16;71.44
66385;BME280;53426;55.872;37.462;2022-12-18T09:28:51;99060.06;;;-3.16;70.95
66385;BME280;53426;55.872;37.462;2022-12-18T09:31:23;99065.97;;;-3.13;71.11
66385;BME280;53426;55.872;37.462;2022-12-18T09:33:51;99074.88;;;-3.20;70.88
66385;BME280;53426;55.872;37.462;2022-12-18T09:36:18;99081.94;;;-3.25;71.24
66385;BME280;53426;55.872;37.462;2022-12-18T09:47:47;99119.00;;;-3.23;71.52
66385;BME280;53426;55.872;37.462;2022-12-18T09:52:49;99117.66;;;-3.10;71.09
66385;BME280;53426;55.872;37.462;2022-12-18T09:55:40;99115.28;;;-3.16;71.34
66385;BME280;53426;55.872;37.462;2022-12-18T09:58:16;99125.63;;;-3.16;71.29
66385;BME280;53426;55.872;37.462;2022-12-18T10:00:44;99125.22;;;-3.28;71.33
66385;BME280;53426;55.872;37.462;2022-12-18T10:03:12;99140.09;;;-3.33;71.58
66385;BME280;53426;55.872;37.462;2022-12-18T10:11:43;99132.34;;;-3.35;72.41
66385;BME280;53426;55.872;37.462;2022-12-18T10:14:39;99132.16;;;-3.29;72.34
66385;BME280;53426;55.872;37.462;2022-12-18T10:20:27;99133.47;;;-3.42;72.09
66385;BME280;53426;55.872;37.462;2022-12-18T10:23:15;99155.38;;;-3.52;72.57
66385;BME280;53426;55.872;37.462;2022-12-18T10:26:10;99141.13;;;-3.39;72.47
66385;BME280;53426;55.872;37.462;2022-12-18T10:29:25;99105.28;;;-3.76;72.46
66385;BME280;53426;55.872;37.462;2022-12-18T10:31:52;99121.56;;;-3.72;72.26
66385;BME280;53426;55.872;37.462;2022-12-18T10:34:18;99161.03;;;-3.41;72.45
66385;BME280;53426;55.872;37.462;2022-12-18T10:36:43;99146.56;;;-3.47;72.69
66385;BME280;53426;55.872;37.462;2022-12-18T10:42:31;99102.34;;;-3.92;73.05
66385;BME280;53426;55.872;37.462;2022-12-18T10:45:13;99156.75;;;-3.42;72.81
66385;BME280;53426;55.872;37.462;2022-12-18T10:47:49;99157.91;;;-3.51;73.05
66385;BME280;53426;55.872;37.462;2022-12-18T11:05:44;99144.72;;;-3.96;73.95
66385;BME280;53426;55.872;37.462;2022-12-18T11:08:20;99179.06;;;-3.64;74.06
66385;BME280;53426;55.872;37.462;2022-12-18T11:16:45;99190.28;;;-3.65;73.90
66385;BME280;53426;55.872;37.462;2022-12-18T11:19:33;99186.72;;;-3.61;73.71
66385;BME280;53426;55.872;37.462;2022-12-18T11:22:00;99201.25;;;-3.57;73.35
66385;BME280;53426;55.872;37.462;2022-12-18T11:24:34;99202.94;;;-3.56;73.29
66385;BME280;53426;55.872;37.462;2022-12-18T11:27:04;99194.53;;;-3.63;73.38
66385;BME280;53426;55.872;37.462;2022-12-18T11:29:39;99214.38;;;-3.63;72.85
66385;BME280;53426;55.872;37.462;2022-12-18T11:34:51;99211.06;;;-3.67;72.96
66385;BME280;53426;55.872;37.462;2022-12-18T11:44:46;99182.94;;;-4.04;73.12
66385;BME280;53426;55.872;37.462;2022-12-18T11:49:49;99205.72;;;-3.89;73.29
66385;BME280;53426;55.872;37.462;2022-12-18T11:52:23;99236.38;;;-3.76;73.13
66385;BME280;53426;55.872;37.462;2022-12-18T11:54:55;99242.28;;;-3.73;73.02
66385;BME280;53426;55.872;37.462;2022-12-18T11:57:41;99245.63;;;-3.69;73.33
66385;BME280;53426;55.872;37.462;2022-12-18T12:00:21;99229.69;;;-3.84;73.12
66385;BME280;53426;55.872;37.462;2022-12-18T12:06:07;99210.38;;;-4.00;73.21
66385;BME280;53426;55.872;37.462;2022-12-18T12:15:01;99280.44;;;-3.80;73.16
66385;BME280;53426;55.872;37.462;2022-12-18T12:17:48;99300.06;;;-3.72;73.21
66385;BME280;53426;55.872;37.462;2022-12-18T12:26:15;99269.69;;;-3.95;73.26
66385;BME280;53426;55.872;37.462;2022-12-18T12:29:01;99306.72;;;-3.65;73.33
66385;BME280;53426;55.872;37.462;2022-12-18T12:40:19;99339.72;;;-3.72;73.56
66385;BME280;53426;55.872;37.462;2022-12-18T12:42:56;99308.34;;;-3.91;73.50
66385;BME280;53426;55.872;37.462;2022-12-18T12:48:49;99317.00;;;-3.92;73.09
66385;BME280;53426;55.872;37.462;2022-12-18T12:51:25;99351.16;;;-3.81;73.09
66385;BME280;53426;55.872;37.462;2022-12-18T12:53:54;99353.13;;;-3.89;73.05
66385;BME280;53426;55.872;37.462;2022-12-18T12:56:22;99348.72;;;-3.85;73.43
66385;BME280;53426;55.872;37.462;2022-12-18T13:02:02;99389.75;;;-3.73;73.34
66385;BME280;53426;55.872;37.462;2022-12-18T13:04:43;99399.28;;;-3.75;73.46
66385;BME280;53426;55.872;37.462;2022-12-18T13:13:13;99405.78;;;-3.60;73.36
66385;BME280;53426;55.872;37.462;2022-12-18T13:18:55;99433.00;;;-3.49;73.49
66385;BME280;53426;55.872;37.462;2022-12-18T13:21:29;99423.66;;;-3.53;73.57
66385;BME280;53426;55.872;37.462;2022-12-18T13:24:30;99420.69;;;-3.39;74.01
66385;BME280;53426;55.872;37.462;2022-12-18T13:30:42;99448.16;;;-3.35;73.76
66385;BME280;53426;55.872;37.462;2022-12-18T13:48:51;99496.63;;;-3.71;73.07
66385;BME280;53426;55.872;37.462;2022-12-18T13:51:19;99472.03;;;-3.87;73.37
66385;BME280;53426;55.872;37.462;2022-12-18T13:53:55;99495.78;;;-3.71;72.59
66385;BME280;53426;55.872;37.462;2022-12-18T13:56:25;99494.88;;;-3.70;72.24
66385;BME280;53426;55.872;37.462;2022-12-18T14:03:28;99499.19;;;-4.03;72.60
66385;BME280;53426;55.872;37.462;2022-12-18T14:06:27;99517.66;;;-3.83;72.49
66385;BME280;53426;55.872;37.462;2022-12-18T14:08:53;99480.47;;;-4.11;72.42
66385;BME280;53426;55.872;37.462;2022-12-18T14:11:21;99523.75;;;-3.86;72.20
66385;BME280;53426;55.872;37.462;2022-12-18T14:13:50;99546.03;;;-3.82;71.99
66385;BME280;53426;55.872;37.462;2022-12-18T14:16:16;99510.34;;;-4.00;72.08
66385;BME280;53426;55.872;37.462;2022-12-18T14:18:48;99541.69;;;-3.80;72.09
66385;BME280;53426;55.872;37.462;2022-12-18T14:23:45;99552.16;;;-3.84;71.94
66385;BME280;53426;55.872;37.462;2022-12-18T14:26:30;99541.28;;;-3.97;72.07
66385;BME280;53426;55.872;37.462;2022-12-18T14:32:18;99565.44;;;-3.98;72.00
66385;BME280;53426;55.872;37.462;2022-12-18T14:34:54;99519.84;;;-4.36;71.93
66385;BME280;53426;55.872;37.462;2022-12-18T14:37:24;99572.78;;;-4.15;72.09
66385;BME280;53426;55.872;37.462;2022-12-18T14:39:59;99520.03;;;-4.43;71.52
66385;BME280;53426;55.872;37.462;2022-12-18T14:42:27;99560.13;;;-4.27;72.12
66385;BME280;53426;55.872;37.462;2022-12-18T14:47:57;99583.88;;;-4.11;71.65
66385;BME280;53426;55.872;37.462;2022-12-18T14:50:23;99593.13;;;-4.03;71.83
66385;BME280;53426;55.872;37.462;2022-12-18T14:52:49;99589.09;;;-4.14;71.48
66385;BME280;53426;55.872;37.462;2022-12-18T14:55:20;99586.50;;;-4.13;71.38
66385;BME280;53426;55.872;37.462;2022-12-18T15:01:17;99570.78;;;-4.41;71.34
66385;BME280;53426;55.872;37.462;2022-12-18T15:03:43;99609.84;;;-4.16;71.33
66385;BME280;53426;55.872;37.462;2022-12-18T15:06:26;99631.19;;;-4.08;71.62
66385;BME280;53426;55.872;37.462;2022-12-18T15:08:53;99592.44;;;-4.46;71.82
66385;BME280;53426;55.872;37.462;2022-12-18T15:13:52;99643.31;;;-4.10;71.62
66385;BME280;53426;55.872;37.462;2022-12-18T15:16:18;99647.78;;;-4.16;71.79
66385;BME280;53426;55.872;37.462;2022-12-18T15:18:44;99603.75;;;-4.50;71.83
66385;BME280;53426;55.872;37.462;2022-12-18T15:21:17;99618.97;;;-4.38;71.54
66385;BME280;53426;55.872;37.462;2022-12-18T15:26:10;99660.91;;;-4.26;71.76
66385;BME280;53426;55.872;37.462;2022-12-18T15:28:45;99654.09;;;-4.30;71.70
66385;BME280;53426;55.872;37.462;2022-12-18T15:33:59;99644.47;;;-4.61;71.54
66385;BME280;53426;55.872;37.462;2022-12-18T15:36:26;99636.81;;;-4.66;71.82
66385;BME280;53426;55.872;37.462;2022-12-18T15:38:54;99622.41;;;-4.78;71.62
66385;BME280;53426;55.872;37.462;2022-12-18T15:41:21;99672.84;;;-4.58;71.90
66385;BME280;53426;55.872;37.462;2022-12-18T15:43:49;99675.41;;;-4.58;71.52
66385;BME280;53426;55.872;37.462;2022-12-18T15:46:18;99670.25;;;-4.58;71.85
66385;BME280;53426;55.872;37.462;2022-12-18T15:48:46;99643.81;;;-4.71;71.52
66385;BME280;53426;55.872;37.462;2022-12-18T15:51:36;99669.41;;;-4.60;71.35
66385;BME280;53426;55.872;37.462;2022-12-18T15:54:04;99670.41;;;-4.68;71.33
66385;BME280;53426;55.872;37.462;2022-12-18T15:56:33;99684.13;;;-4.64;71.39
66385;BME280;53426;55.872;37.462;2022-12-18T15:59:46;99694.28;;;-4.56;71.74
66385;BME280;53426;55.872;37.462;2022-12-18T16:02:17;99685.22;;;-4.76;71.74
66385;BME280;53426;55.872;37.462;2022-12-18T16:04:46;99700.44;;;-4.62;71.24
66385;BME280;53426;55.872;37.462;2022-12-18T16:07:12;99660.09;;;-5.11;70.99
66385;BME280;53426;55.872;37.462;2022-12-18T16:09:38;99729.25;;;-4.82;70.81
66385;BME280;53426;55.872;37.462;2022-12-18T16:12:06;99718.38;;;-4.99;70.50
66385;BME280;53426;55.872;37.462;2022-12-18T16:14:32;99729.59;;;-5.00;70.34
66385;BME280;53426;55.872;37.462;2022-12-18T16:17:03;99735.03;;;-5.15;70.13
66385;BME280;53426;55.872;37.462;2022-12-18T16:22:23;99708.09;;;-5.50;70.32
66385;BME280;53426;55.872;37.462;2022-12-18T16:24:52;99726.91;;;-5.44;70.27
66385;BME280;53426;55.872;37.462;2022-12-18T16:27:19;99767.06;;;-5.27;70.63
66385;BME280;53426;55.872;37.462;2022-12-18T16:29:45;99767.97;;;-5.29;69.83
66385;BME280;53426;55.872;37.462;2022-12-18T16:32:14;99753.53;;;-5.41;69.78
66385;BME280;53426;55.872;37.462;2022-12-18T16:34:41;99773.25;;;-5.37;69.62
66385;BME280;53426;55.872;37.462;2022-12-18T16:37:08;99781.09;;;-5.44;70.33
66385;BME280;53426;55.872;37.462;2022-12-18T16:39:36;99788.97;;;-5.52;70.34
66385;BME280;53426;55.872;37.462;2022-12-18T16:42:04;99776.28;;;-5.67;69.90
66385;BME280;53426;55.872;37.462;2022-12-18T16:44:58;99792.63;;;-5.67;70.23
66385;BME280;53426;55.872;37.462;2022-12-18T16:47:29;99816.28;;;-5.96;70.12
66385;BME280;53426;55.872;37.462;2022-12-18T16:49:58;99805.19;;;-6.01;70.36
66385;BME280;53426;55.872;37.462;2022-12-18T16:52:24;99806.84;;;-5.98;70.56
66385;BME280;53426;55.872;37.462;2022-12-18T16:54:50;99807.69;;;-5.95;70.11
66385;BME280;53426;55.872;37.462;2022-12-18T16:57:17;99805.97;;;-5.97;69.71
66385;BME280;53426;55.872;37.462;2022-12-18T16:59:43;99823.25;;;-6.05;69.47
66385;BME280;53426;55.872;37.462;2022-12-18T17:02:14;99819.81;;;-6.04;69.71
66385;BME280;53426;55.872;37.462;2022-12-18T17:04:43;99820.84;;;-6.17;69.27
66385;BME280;53426;55.872;37.462;2022-12-18T17:07:10;99827.75;;;-6.19;69.03
66385;BME280;53426;55.872;37.462;2022-12-18T17:09:37;99836.47;;;-6.31;68.91
66385;BME280;53426;55.872;37.462;2022-12-18T17:12:29;99796.63;;;-6.78;69.32
66385;BME280;53426;55.872;37.462;2022-12-18T17:14:58;99810.31;;;-6.76;69.79
66385;BME280;53426;55.872;37.462;2022-12-18T17:17:24;99847.13;;;-6.64;69.95
66385;BME280;53426;55.872;37.462;2022-12-18T17:19:51;99842.00;;;-6.66;69.75
66385;BME280;53426;55.872;37.462;2022-12-18T17:26:14;99791.94;;;-7.28;69.94
66385;BME280;53426;55.872;37.462;2022-12-18T17:28:46;99866.16;;;-6.79;69.55
66385;BME280;53426;55.872;37.462;2022-12-18T17:31:19;99855.22;;;-7.05;70.13
66385;BME280;53426;55.872;37.462;2022-12-18T17:33:48;99879.22;;;-7.02;69.61
66385;BME280;53426;55.872;37.462;2022-12-18T17:36:15;99842.59;;;-7.33;69.75
66385;BME280;53426;55.872;37.462;2022-12-18T17:38:54;99835.81;;;-7.43;69.76